Keum Yang Family — DSNO8 — position and weather

sailwx.info

Track history (hours):
 
Tides and Currents Weather Stations Pressure Air Temp Water Temp Dewpoint Dewpoint Depression Visibility Wind Speed Wind Dir Waves Ship Positions

Keum Yang Family

Last reported at 2016-May-30 23:33 UTC. Time now 2016-May-31 00:08 UTC.
Position N 35°23' E 139°38'.

Length 95 m; draft 4.5 m.

Type: Cargo ship. MMSI: 441416000.

Date/timePositionNaut miles runAvg speedWind from/ knotsBaromVisibWave heightAir tempDewpointWater temp
2016-May-30 23:33N 35°23' E 139°38'1 1.2
2016-May-30 22:34N 35°23' E 139°40'0 0.2
2016-May-30 21:33N 35°23' E 139°40'0 0.1
2016-May-30 20:33N 35°23' E 139°40'0 0.0
2016-May-30 19:33N 35°23' E 139°40'0 0.0
2016-May-30 18:33N 35°23' E 139°40'0 0.0
2016-May-30 17:33N 35°23' E 139°40'0 0.0
2016-May-30 16:33N 35°23' E 139°40'0 0.0
2016-May-30 15:33N 35°23' E 139°40'0 0.0
2016-May-30 14:33N 35°23' E 139°40'0 0.0
2016-May-30 13:33N 35°23' E 139°40'0 0.0
2016-May-30 12:33N 35°23' E 139°40'0 0.0
2016-May-30 11:33N 35°23' E 139°40'0 0.0
2016-May-30 10:30N 35°23' E 139°40'0 0.1
2016-May-30 09:33N 35°23' E 139°40'0 0.1
2016-May-30 08:33N 35°23' E 139°40'1 1.1
2016-May-30 07:33N 35°23' E 139°38'0 0.0
2016-May-30 06:33N 35°23' E 139°38'0 0.0
2016-May-30 05:33N 35°23' E 139°38'0 0.0
2016-May-30 04:33N 35°23' E 139°38'0 0.0
2016-May-30 03:33N 35°23' E 139°38'0 0.0
2016-May-30 02:33N 35°23' E 139°38'0 0.0
2016-May-30 01:33N 35°23' E 139°38'0 0.0
2016-May-30 00:33N 35°23' E 139°38'0 0.0
2016-May-29 23:33N 35°23' E 139°38'1 1.3
2016-May-29 22:34N 35°23' E 139°40'0 0.1
2016-May-29 21:33N 35°23' E 139°40'0 0.1
2016-May-29 20:30N 35°23' E 139°40'0 0.1
2016-May-29 19:33N 35°23' E 139°40'0 0.1
2016-May-29 18:33N 35°23' E 139°40'0 0.1
2016-May-29 17:33N 35°23' E 139°40'0 0.0
2016-May-29 16:33N 35°23' E 139°40'0 0.0
2016-May-29 15:33N 35°23' E 139°40'0 0.0
2016-May-29 14:33N 35°23' E 139°40'0 0.1
2016-May-29 13:33N 35°23' E 139°40'0 0.0
2016-May-29 12:33N 35°23' E 139°40'0 0.0
2016-May-29 11:30N 35°23' E 139°40'0 0.0
2016-May-29 10:33N 35°23' E 139°40'0 0.0
2016-May-29 09:30N 35°23' E 139°40'0 0.1
2016-May-29 08:33N 35°23' E 139°40'0 0.0
2016-May-29 07:33N 35°23' E 139°40'0 0.0
2016-May-29 06:30N 35°23' E 139°40'0 0.0
2016-May-29 05:33N 35°23' E 139°40'0 0.0
2016-May-29 04:33N 35°23' E 139°40'0 0.0
2016-May-29 03:33N 35°23' E 139°40'0 0.0
2016-May-29 02:33N 35°23' E 139°40'0 0.0
2016-May-29 01:33N 35°23' E 139°40'0 0.0
2016-May-29 00:33N 35°23' E 139°40'0 0.0
2016-May-28 23:33N 35°23' E 139°40'0 0.0
2016-May-28 22:30N 35°23' E 139°40'0 0.0
2016-May-28 21:33N 35°23' E 139°40'0 0.0
2016-May-28 20:33N 35°23' E 139°40'0 0.0
2016-May-28 19:33N 35°23' E 139°40'0 0.0
2016-May-28 18:33N 35°23' E 139°40'0 0.0
2016-May-28 17:33N 35°23' E 139°40'0 0.0
2016-May-28 16:33N 35°23' E 139°40'0 0.0
2016-May-28 15:33N 35°23' E 139°40'0 0.0
2016-May-28 14:30N 35°23' E 139°40'0 0.1
2016-May-28 13:33N 35°23' E 139°40'0 0.0
2016-May-28 12:30N 35°23' E 139°40'0 0.0
2016-May-28 11:33N 35°23' E 139°40'0 0.0
2016-May-28 10:33N 35°23' E 139°40'0 0.0
2016-May-28 09:33N 35°23' E 139°40'0 0.0
2016-May-28 08:33N 35°23' E 139°40'0 0.2
2016-May-28 07:34N 35°23' E 139°40'5 4.8
2016-May-28 06:33N 35°27' E 139°44'3 3.2
2016-May-28 05:33N 35°30' E 139°46'0 0.0
2016-May-28 04:33N 35°30' E 139°46'0 0.0
2016-May-28 03:33N 35°30' E 139°46'0 0.0
2016-May-28 02:33N 35°30' E 139°46'0 0.0
2016-May-28 01:33N 35°30' E 139°46'0 0.0
2016-May-28 00:30N 35°30' E 139°46'0 0.0
2016-May-27 23:33N 35°30' E 139°46'0 0.0
2016-May-27 22:33N 35°30' E 139°46'0 0.0
2016-May-27 21:33N 35°30' E 139°46'0 0.0
2016-May-27 20:30N 35°30' E 139°46'0 0.0
2016-May-27 19:33N 35°30' E 139°46'0 0.0
2016-May-27 18:33N 35°30' E 139°46'0 0.0
2016-May-27 17:33N 35°30' E 139°46'0 0.0
2016-May-27 16:30N 35°30' E 139°46'0 0.0
2016-May-27 15:33N 35°30' E 139°46'0 0.0
2016-May-27 14:33N 35°30' E 139°46'0 0.0
2016-May-27 13:33N 35°30' E 139°46'0 0.0
2016-May-27 12:33N 35°30' E 139°46'0 0.0
2016-May-27 11:33N 35°30' E 139°46'0 0.0
2016-May-27 10:30N 35°30' E 139°46'0 0.0
2016-May-27 09:33N 35°30' E 139°46'0 0.0
2016-May-27 08:33N 35°30' E 139°46'0 0.0
2016-May-27 07:33N 35°30' E 139°46'0 0.0
2016-May-27 06:30N 35°30' E 139°46'0 0.0
2016-May-27 05:33N 35°30' E 139°46'0 0.0
2016-May-27 04:33N 35°30' E 139°46'0 0.0
2016-May-27 03:33N 35°30' E 139°46'0 0.0
2016-May-27 02:30N 35°30' E 139°46'0 0.0
2016-May-27 01:33N 35°30' E 139°46'0 0.0
2016-May-27 00:33N 35°30' E 139°46'0 0.0
2016-May-26 23:33N 35°30' E 139°46'0 0.0
2016-May-26 22:33N 35°30' E 139°46'0 0.0
2016-May-26 21:30N 35°30' E 139°46'0 0.0
2016-May-26 20:33N 35°30' E 139°46'0 0.0
2016-May-26 19:33N 35°30' E 139°46'0 0.0
2016-May-26 18:33N 35°30' E 139°46'0 0.0
2016-May-26 17:33N 35°30' E 139°46'0 0.0
2016-May-26 16:33N 35°30' E 139°46'0 0.0
2016-May-26 15:33N 35°30' E 139°46'0 0.0
2016-May-26 14:33N 35°30' E 139°46'0 0.0
2016-May-26 13:33N 35°30' E 139°46'0 0.0
2016-May-26 12:30N 35°30' E 139°46'0 0.0
2016-May-26 11:33N 35°30' E 139°46'0 0.0
2016-May-26 10:33N 35°30' E 139°46'0 0.0
2016-May-26 09:33N 35°30' E 139°46'0 0.0
2016-May-26 08:30N 35°30' E 139°46'0 0.0
2016-May-26 07:33N 35°30' E 139°46'0 0.0
2016-May-26 06:33N 35°30' E 139°46'0 0.0
2016-May-26 05:33N 35°30' E 139°46'0 0.0
2016-May-26 04:33N 35°30' E 139°46'0 0.0
2016-May-26 03:33N 35°30' E 139°46'0 0.0
2016-May-26 02:33N 35°30' E 139°46'0 0.0
2016-May-26 01:33N 35°30' E 139°46'0 0.0
2016-May-26 00:33N 35°30' E 139°46'0 0.0
2016-May-25 23:33N 35°30' E 139°46'0 0.0
2016-May-25 22:34N 35°30' E 139°46'2 1.8
2016-May-25 21:33N 35°28' E 139°45'3 2.7
2016-May-25 20:33N 35°29' E 139°48'0 0.0
2016-May-25 19:33N 35°29' E 139°48'0 0.0
2016-May-25 18:30N 35°29' E 139°48'0 0.0
2016-May-25 17:30N 35°29' E 139°48'0 0.0
2016-May-25 16:33N 35°29' E 139°48'0 0.0
2016-May-25 15:33N 35°29' E 139°48'0 0.0
2016-May-25 14:33N 35°29' E 139°48'0 0.0
2016-May-25 13:33N 35°29' E 139°48'0 0.0
2016-May-25 12:33N 35°29' E 139°48'0 0.0
2016-May-25 11:33N 35°29' E 139°48'0 0.0
2016-May-25 10:33N 35°29' E 139°48'0 0.0
2016-May-25 09:33N 35°29' E 139°48'0 0.0
2016-May-25 08:30N 35°29' E 139°48'0 0.0
2016-May-25 07:30N 35°29' E 139°48'0 0.0
2016-May-25 06:33N 35°29' E 139°48'0 0.0
2016-May-25 05:33N 35°29' E 139°48'4 4.4
2016-May-25 04:33N 35°24' E 139°47'10 9.8
2016-May-25 03:33N 35°15' E 139°47'1110.7
2016-May-25 02:32N 35°04' E 139°44'  
Track history (hours):
 
Tides and Currents Weather Stations Pressure Air Temp Water Temp Dewpoint Dewpoint Depression Visibility Wind Speed Wind Dir Waves Ship Positions

Keum Yang Family

Last reported at 2016-May-30 23:33 UTC. Time now 2016-May-31 00:08 UTC.
Position N 35°23' E 139°38'.

Length 95 m; draft 4.5 m.

Type: Cargo ship. MMSI: 441416000.

Date/timePositionNaut miles runAvg speedWind from/ knotsBaromVisibWave heightAir tempDewpointWater temp
2016-May-30 23:33N 35°23' E 139°38'1 1.2
2016-May-30 22:34N 35°23' E 139°40'0 0.2
2016-May-30 21:33N 35°23' E 139°40'0 0.1
2016-May-30 20:33N 35°23' E 139°40'0 0.0
2016-May-30 19:33N 35°23' E 139°40'0 0.0
2016-May-30 18:33N 35°23' E 139°40'0 0.0
2016-May-30 17:33N 35°23' E 139°40'0 0.0
2016-May-30 16:33N 35°23' E 139°40'0 0.0
2016-May-30 15:33N 35°23' E 139°40'0 0.0
2016-May-30 14:33N 35°23' E 139°40'0 0.0
2016-May-30 13:33N 35°23' E 139°40'0 0.0
2016-May-30 12:33N 35°23' E 139°40'0 0.0
2016-May-30 11:33N 35°23' E 139°40'0 0.0
2016-May-30 10:30N 35°23' E 139°40'0 0.1
2016-May-30 09:33N 35°23' E 139°40'0 0.1
2016-May-30 08:33N 35°23' E 139°40'1 1.1
2016-May-30 07:33N 35°23' E 139°38'0 0.0
2016-May-30 06:33N 35°23' E 139°38'0 0.0
2016-May-30 05:33N 35°23' E 139°38'0 0.0
2016-May-30 04:33N 35°23' E 139°38'0 0.0
2016-May-30 03:33N 35°23' E 139°38'0 0.0
2016-May-30 02:33N 35°23' E 139°38'0 0.0
2016-May-30 01:33N 35°23' E 139°38'0 0.0
2016-May-30 00:33N 35°23' E 139°38'0 0.0
2016-May-29 23:33N 35°23' E 139°38'1 1.3
2016-May-29 22:34N 35°23' E 139°40'0 0.1
2016-May-29 21:33N 35°23' E 139°40'0 0.1
2016-May-29 20:30N 35°23' E 139°40'0 0.1
2016-May-29 19:33N 35°23' E 139°40'0 0.1
2016-May-29 18:33N 35°23' E 139°40'0 0.1
2016-May-29 17:33N 35°23' E 139°40'0 0.0
2016-May-29 16:33N 35°23' E 139°40'0 0.0
2016-May-29 15:33N 35°23' E 139°40'0 0.0
2016-May-29 14:33N 35°23' E 139°40'0 0.1
2016-May-29 13:33N 35°23' E 139°40'0 0.0
2016-May-29 12:33N 35°23' E 139°40'0 0.0
2016-May-29 11:30N 35°23' E 139°40'0 0.0
2016-May-29 10:33N 35°23' E 139°40'0 0.0
2016-May-29 09:30N 35°23' E 139°40'0 0.1
2016-May-29 08:33N 35°23' E 139°40'0 0.0
2016-May-29 07:33N 35°23' E 139°40'0 0.0
2016-May-29 06:30N 35°23' E 139°40'0 0.0
2016-May-29 05:33N 35°23' E 139°40'0 0.0
2016-May-29 04:33N 35°23' E 139°40'0 0.0
2016-May-29 03:33N 35°23' E 139°40'0 0.0
2016-May-29 02:33N 35°23' E 139°40'0 0.0
2016-May-29 01:33N 35°23' E 139°40'0 0.0
2016-May-29 00:33N 35°23' E 139°40'0 0.0
2016-May-28 23:33N 35°23' E 139°40'0 0.0
2016-May-28 22:30N 35°23' E 139°40'0 0.0
2016-May-28 21:33N 35°23' E 139°40'0 0.0
2016-May-28 20:33N 35°23' E 139°40'0 0.0
2016-May-28 19:33N 35°23' E 139°40'0 0.0
2016-May-28 18:33N 35°23' E 139°40'0 0.0
2016-May-28 17:33N 35°23' E 139°40'0 0.0
2016-May-28 16:33N 35°23' E 139°40'0 0.0
2016-May-28 15:33N 35°23' E 139°40'0 0.0
2016-May-28 14:30N 35°23' E 139°40'0 0.1
2016-May-28 13:33N 35°23' E 139°40'0 0.0
2016-May-28 12:30N 35°23' E 139°40'0 0.0
2016-May-28 11:33N 35°23' E 139°40'0 0.0
2016-May-28 10:33N 35°23' E 139°40'0 0.0
2016-May-28 09:33N 35°23' E 139°40'0 0.0
2016-May-28 08:33N 35°23' E 139°40'0 0.2
2016-May-28 07:34N 35°23' E 139°40'5 4.8
2016-May-28 06:33N 35°27' E 139°44'3 3.2
2016-May-28 05:33N 35°30' E 139°46'0 0.0
2016-May-28 04:33N 35°30' E 139°46'0 0.0
2016-May-28 03:33N 35°30' E 139°46'0 0.0
2016-May-28 02:33N 35°30' E 139°46'0 0.0
2016-May-28 01:33N 35°30' E 139°46'0 0.0
2016-May-28 00:30N 35°30' E 139°46'0 0.0
2016-May-27 23:33N 35°30' E 139°46'0 0.0
2016-May-27 22:33N 35°30' E 139°46'0 0.0
2016-May-27 21:33N 35°30' E 139°46'0 0.0
2016-May-27 20:30N 35°30' E 139°46'0 0.0
2016-May-27 19:33N 35°30' E 139°46'0 0.0
2016-May-27 18:33N 35°30' E 139°46'0 0.0
2016-May-27 17:33N 35°30' E 139°46'0 0.0
2016-May-27 16:30N 35°30' E 139°46'0 0.0
2016-May-27 15:33N 35°30' E 139°46'0 0.0
2016-May-27 14:33N 35°30' E 139°46'0 0.0
2016-May-27 13:33N 35°30' E 139°46'0 0.0
2016-May-27 12:33N 35°30' E 139°46'0 0.0
2016-May-27 11:33N 35°30' E 139°46'0 0.0
2016-May-27 10:30N 35°30' E 139°46'0 0.0
2016-May-27 09:33N 35°30' E 139°46'0 0.0
2016-May-27 08:33N 35°30' E 139°46'0 0.0
2016-May-27 07:33N 35°30' E 139°46'0 0.0
2016-May-27 06:30N 35°30' E 139°46'0 0.0
2016-May-27 05:33N 35°30' E 139°46'0 0.0
2016-May-27 04:33N 35°30' E 139°46'0 0.0
2016-May-27 03:33N 35°30' E 139°46'0 0.0
2016-May-27 02:30N 35°30' E 139°46'0 0.0
2016-May-27 01:33N 35°30' E 139°46'0 0.0
2016-May-27 00:33N 35°30' E 139°46'0 0.0
2016-May-26 23:33N 35°30' E 139°46'0 0.0
2016-May-26 22:33N 35°30' E 139°46'0 0.0
2016-May-26 21:30N 35°30' E 139°46'0 0.0
2016-May-26 20:33N 35°30' E 139°46'0 0.0
2016-May-26 19:33N 35°30' E 139°46'0 0.0
2016-May-26 18:33N 35°30' E 139°46'0 0.0
2016-May-26 17:33N 35°30' E 139°46'0 0.0
2016-May-26 16:33N 35°30' E 139°46'0 0.0
2016-May-26 15:33N 35°30' E 139°46'0 0.0
2016-May-26 14:33N 35°30' E 139°46'0 0.0
2016-May-26 13:33N 35°30' E 139°46'0 0.0
2016-May-26 12:30N 35°30' E 139°46'0 0.0
2016-May-26 11:33N 35°30' E 139°46'0 0.0
2016-May-26 10:33N 35°30' E 139°46'0 0.0
2016-May-26 09:33N 35°30' E 139°46'0 0.0
2016-May-26 08:30N 35°30' E 139°46'0 0.0
2016-May-26 07:33N 35°30' E 139°46'0 0.0
2016-May-26 06:33N 35°30' E 139°46'0 0.0
2016-May-26 05:33N 35°30' E 139°46'0 0.0
2016-May-26 04:33N 35°30' E 139°46'0 0.0
2016-May-26 03:33N 35°30' E 139°46'0 0.0
2016-May-26 02:33N 35°30' E 139°46'0 0.0
2016-May-26 01:33N 35°30' E 139°46'0 0.0
2016-May-26 00:33N 35°30' E 139°46'0 0.0
2016-May-25 23:33N 35°30' E 139°46'0 0.0
2016-May-25 22:34N 35°30' E 139°46'2 1.8
2016-May-25 21:33N 35°28' E 139°45'3 2.7
2016-May-25 20:33N 35°29' E 139°48'0 0.0
2016-May-25 19:33N 35°29' E 139°48'0 0.0
2016-May-25 18:30N 35°29' E 139°48'0 0.0
2016-May-25 17:30N 35°29' E 139°48'0 0.0
2016-May-25 16:33N 35°29' E 139°48'0 0.0
2016-May-25 15:33N 35°29' E 139°48'0 0.0
2016-May-25 14:33N 35°29' E 139°48'0 0.0
2016-May-25 13:33N 35°29' E 139°48'0 0.0
2016-May-25 12:33N 35°29' E 139°48'0 0.0
2016-May-25 11:33N 35°29' E 139°48'0 0.0
2016-May-25 10:33N 35°29' E 139°48'0 0.0
2016-May-25 09:33N 35°29' E 139°48'0 0.0
2016-May-25 08:30N 35°29' E 139°48'0 0.0
2016-May-25 07:30N 35°29' E 139°48'0 0.0
2016-May-25 06:33N 35°29' E 139°48'0 0.0
2016-May-25 05:33N 35°29' E 139°48'4 4.4
2016-May-25 04:33N 35°24' E 139°47'10 9.8
2016-May-25 03:33N 35°15' E 139°47'1110.7
2016-May-25 02:32N 35°04' E 139°44'  

Dump ship's entire track history